createdAt,value
2023-04-18T00:00:13.548Z,169.43
2023-04-18T00:01:13.538Z,172.74
2023-04-18T00:02:13.625Z,168.53
2023-04-18T00:03:13.584Z,170.87
2023-04-18T00:04:14.277Z,173.18
2023-04-18T00:05:13.589Z,167.28
2023-04-18T00:06:13.552Z,171.17
2023-04-18T00:07:13.582Z,173.65
2023-04-18T00:08:13.581Z,171.17
2023-04-18T00:09:13.670Z,169.96
2023-04-18T00:10:13.625Z,171.93
2023-04-18T00:11:13.617Z,172.15
2023-04-18T00:12:13.575Z,171.24
2023-04-18T00:13:13.609Z,168.56
2023-04-18T00:14:13.792Z,172.17
2023-04-18T00:15:13.601Z,170.09
2023-04-18T00:16:13.639Z,171.22
2023-04-18T00:17:13.658Z,171.78
2023-04-18T00:18:13.607Z,169.09
2023-04-18T00:19:13.690Z,169.11
2023-04-18T00:20:13.614Z,171.79
2023-04-18T00:21:13.581Z,169.69
2023-04-18T00:22:13.629Z,170.54
2023-04-18T00:23:13.629Z,169.53
2023-04-18T00:24:13.842Z,169.49
2023-04-18T00:25:13.591Z,168.57
2023-04-18T00:26:13.653Z,169.64
2023-04-18T00:27:13.649Z,169.46
2023-04-18T00:28:13.624Z,169.38
2023-04-18T00:29:13.648Z,169.04
2023-04-18T00:30:13.634Z,171.73
2023-04-18T00:31:13.718Z,169.49
2023-04-18T00:32:13.665Z,170.13
2023-04-18T00:33:13.672Z,170.89
2023-04-18T00:34:13.743Z,171.38
2023-04-18T00:35:13.632Z,169.58
2023-04-18T00:36:13.636Z,168.29
2023-04-18T00:37:13.671Z,173.54
2023-04-18T00:38:13.660Z,170.57
2023-04-18T00:39:13.637Z,169.47
2023-04-18T00:40:13.627Z,172.16
2023-04-18T00:41:13.648Z,168.26
2023-04-18T00:42:13.647Z,170.92
2023-04-18T00:43:13.676Z,169.56
2023-04-18T00:44:13.925Z,170.46
2023-04-18T00:45:13.654Z,167.89
2023-04-18T00:46:13.686Z,172.68
2023-04-18T00:47:13.669Z,170.51
2023-04-18T00:48:13.654Z,169.73
2023-04-18T00:49:13.627Z,169.83
2023-04-18T00:50:13.626Z,167.04
2023-04-18T00:51:13.664Z,171.24
2023-04-18T00:52:13.668Z,170.41
2023-04-18T00:53:13.707Z,171.64
2023-04-18T00:54:13.943Z,168.87
2023-04-18T00:55:13.704Z,169.29
2023-04-18T00:56:13.719Z,169.58
2023-04-18T00:57:13.743Z,167.22
2023-04-18T00:58:13.772Z,169.49
2023-04-18T00:59:13.796Z,167.79
2023-04-18T01:00:13.760Z,168.94
2023-04-18T01:01:13.863Z,169.13
2023-04-18T01:02:13.888Z,169.49
2023-04-18T01:03:14.060Z,168.86
2023-04-18T01:04:14.403Z,170.68
2023-04-18T01:05:13.885Z,169.31
2023-04-18T01:06:13.883Z,170.95
2023-04-18T01:07:13.927Z,170.08
2023-04-18T01:08:13.977Z,172.73
2023-04-18T01:09:14.032Z,167.85
2023-04-18T01:10:13.944Z,167.90
2023-04-18T01:11:14.015Z,170.96
2023-04-18T01:12:13.994Z,168.22
2023-04-18T01:13:14.043Z,170.88
2023-04-18T01:14:14.277Z,170.03
2023-04-18T01:15:14.039Z,171.16
2023-04-18T01:16:14.147Z,171.09
2023-04-18T01:17:14.078Z,168.65
2023-04-18T01:18:14.105Z,169.14
2023-04-18T01:19:14.122Z,170.45
2023-04-18T01:20:14.145Z,168.30
2023-04-18T01:21:14.152Z,166.31
2023-04-18T01:22:14.127Z,173.83
2023-04-18T01:23:14.139Z,171.04
2023-04-18T01:24:14.364Z,166.84
2023-04-18T01:25:14.151Z,168.42
2023-04-18T01:26:14.137Z,167.75
2023-04-18T01:27:14.162Z,171.66
2023-04-18T01:28:14.180Z,168.20
2023-04-18T01:29:14.185Z,171.49
2023-04-18T01:30:14.150Z,170.14
2023-04-18T01:31:14.214Z,168.19
2023-04-18T01:32:14.173Z,166.79
2023-04-18T01:33:14.169Z,167.94
2023-04-18T01:34:14.394Z,168.01
2023-04-18T01:35:14.192Z,171.43
2023-04-18T01:36:14.198Z,170.78
2023-04-18T01:37:14.186Z,168.03
2023-04-18T01:38:14.178Z,168.92
2023-04-18T01:39:14.193Z,170.10
2023-04-18T01:40:14.267Z,167.65
2023-04-18T01:41:14.192Z,168.66
2023-04-18T01:42:14.189Z,171.27
2023-04-18T01:43:14.206Z,167.13
2023-04-18T01:44:14.462Z,167.55
2023-04-18T01:45:14.219Z,167.26
2023-04-18T01:46:14.285Z,169.22
2023-04-18T01:47:14.216Z,168.83
2023-04-18T01:48:14.259Z,170.67
2023-04-18T01:49:14.261Z,168.06
2023-04-18T01:50:14.238Z,168.47
2023-04-18T01:51:14.255Z,165.09
2023-04-18T01:52:14.313Z,167.69
2023-04-18T01:53:14.256Z,166.88
2023-04-18T01:54:14.380Z,165.59
2023-04-18T01:55:14.273Z,171.42
2023-04-18T01:56:14.253Z,166.52
2023-04-18T01:57:14.255Z,167.35
2023-04-18T01:58:14.293Z,170.45
2023-04-18T01:59:14.272Z,167.47
2023-04-18T02:00:14.274Z,170.01
2023-04-18T02:01:14.404Z,166.82
2023-04-18T02:02:14.373Z,167.71
2023-04-18T02:03:14.472Z,167.64
2023-04-18T02:04:14.471Z,167.25
2023-04-18T02:05:14.309Z,167.64
2023-04-18T02:06:14.311Z,165.36
2023-04-18T02:07:14.326Z,166.73
2023-04-18T02:08:14.369Z,165.12
2023-04-18T02:09:14.349Z,168.18
2023-04-18T02:10:14.336Z,168.26
2023-04-18T02:11:14.391Z,169.27
2023-04-18T02:12:14.358Z,167.68
2023-04-18T02:13:14.407Z,164.99
2023-04-18T02:14:14.669Z,167.13
2023-04-18T02:15:14.418Z,167.32
2023-04-18T02:16:14.444Z,169.94
2023-04-18T02:17:14.461Z,168.04
2023-04-18T02:18:14.451Z,166.09
2023-04-18T02:19:14.452Z,166.71
2023-04-18T02:20:14.441Z,166.29
2023-04-18T02:21:14.440Z,163.99
2023-04-18T02:22:14.467Z,167.21
2023-04-18T02:23:14.463Z,165.62
2023-04-18T02:24:14.808Z,164.82
2023-04-18T02:25:14.472Z,166.86
2023-04-18T02:26:14.531Z,165.45
2023-04-18T02:27:14.489Z,165.52
2023-04-18T02:28:14.503Z,167.11
2023-04-18T02:29:14.544Z,163.25
2023-04-18T02:30:14.547Z,162.36
2023-04-18T02:31:14.746Z,168.62
2023-04-18T02:32:14.531Z,163.99
2023-04-18T02:33:14.542Z,165.79
2023-04-18T02:34:14.753Z,165.38
2023-04-18T02:35:14.565Z,168.02
2023-04-18T02:36:14.577Z,167.87
2023-04-18T02:37:14.617Z,168.83
2023-04-18T02:38:14.564Z,165.16
2023-04-18T02:39:14.618Z,162.65
2023-04-18T02:40:14.613Z,166.49
2023-04-18T02:41:14.623Z,165.47
2023-04-18T02:42:14.639Z,164.81
2023-04-18T02:43:14.629Z,164.84
2023-04-18T02:44:14.909Z,164.84
2023-04-18T02:45:14.691Z,163.77
2023-04-18T02:46:14.702Z,168.01
2023-04-18T02:47:14.681Z,166.48
2023-04-18T02:48:14.783Z,166.75
2023-04-18T02:49:14.709Z,168.22
2023-04-18T02:50:14.719Z,165.11
2023-04-18T02:51:14.757Z,165.71
2023-04-18T02:52:14.827Z,165.48
2023-04-18T02:53:14.803Z,165.54
2023-04-18T02:54:15.040Z,165.33
2023-04-18T02:55:14.898Z,164.80
2023-04-18T02:56:14.893Z,169.04
2023-04-18T02:57:14.907Z,167.34
2023-04-18T02:58:14.942Z,166.69
2023-04-18T02:59:14.967Z,162.39
2023-04-18T03:00:15.027Z,165.67
2023-04-18T03:01:15.071Z,164.83
2023-04-18T03:02:15.137Z,162.39
2023-04-18T03:03:15.154Z,162.82
2023-04-18T03:04:15.185Z,167.05
2023-04-18T03:05:15.161Z,165.19
2023-04-18T03:06:15.158Z,166.47
2023-04-18T03:07:15.177Z,165.80
2023-04-18T03:08:15.203Z,160.40
2023-04-18T03:09:15.248Z,166.63
2023-04-18T03:10:15.266Z,162.57
2023-04-18T03:11:15.291Z,164.87
2023-04-18T03:12:15.343Z,165.21
2023-04-18T03:13:15.356Z,164.74
2023-04-18T03:14:15.487Z,163.75
2023-04-18T03:15:15.445Z,163.11
2023-04-18T03:16:15.465Z,164.19
2023-04-18T03:17:15.471Z,161.92
2023-04-18T03:18:15.493Z,160.15
2023-04-18T03:19:15.537Z,162.43
2023-04-18T03:20:15.554Z,162.14
2023-04-18T03:21:15.595Z,163.00
2023-04-18T03:22:15.603Z,162.75
2023-04-18T03:23:15.638Z,163.41
2023-04-18T03:24:15.756Z,162.57
2023-04-18T03:25:15.666Z,161.63
2023-04-18T03:26:15.710Z,162.46
2023-04-18T03:27:15.715Z,159.73
2023-04-18T03:28:15.767Z,162.65
2023-04-18T03:29:15.798Z,160.70
2023-04-18T03:30:15.815Z,162.35
2023-04-18T03:31:15.844Z,160.74
2023-04-18T03:32:15.930Z,157.44
2023-04-18T03:33:15.889Z,160.56
2023-04-18T03:34:15.926Z,162.90
2023-04-18T03:35:15.936Z,162.66
2023-04-18T03:36:15.902Z,160.23
2023-04-18T03:37:15.925Z,160.54
2023-04-18T03:38:15.977Z,161.44
2023-04-18T03:39:15.959Z,161.90
2023-04-18T03:40:15.977Z,163.02
2023-04-18T03:41:15.995Z,161.72
2023-04-18T03:42:16.010Z,158.01
2023-04-18T03:43:16.017Z,164.53
2023-04-18T03:44:16.214Z,162.04
2023-04-18T03:45:16.078Z,160.13
2023-04-18T03:46:16.129Z,161.67
2023-04-18T03:47:16.129Z,163.34
2023-04-18T03:48:16.130Z,162.80
2023-04-18T03:49:16.154Z,163.45
2023-04-18T03:50:16.184Z,163.34
2023-04-18T03:51:16.186Z,158.77
2023-04-18T03:52:16.220Z,162.43
2023-04-18T03:53:16.227Z,160.74
2023-04-18T03:54:16.410Z,161.24
2023-04-18T03:55:16.328Z,160.70
2023-04-18T03:56:16.300Z,160.49
2023-04-18T03:57:16.300Z,158.88
2023-04-18T03:58:16.362Z,159.10
2023-04-18T03:59:16.357Z,162.05
2023-04-18T04:00:16.410Z,162.59
2023-04-18T04:01:16.397Z,160.12
2023-04-18T04:02:16.511Z,160.76
2023-04-18T04:03:16.529Z,157.08
2023-04-18T04:04:16.670Z,154.90
2023-04-18T04:05:16.493Z,154.20
2023-04-18T04:06:16.499Z,155.84
2023-04-18T04:07:16.488Z,150.77
2023-04-18T04:08:16.510Z,145.55
2023-04-18T04:09:16.558Z,145.08
2023-04-18T04:10:16.580Z,140.20
2023-04-18T04:11:16.644Z,134.85
2023-04-18T04:12:16.611Z,135.34
2023-04-18T04:13:16.649Z,127.92
2023-04-18T04:14:16.657Z,122.26
2023-04-18T04:15:16.688Z,118.45
2023-04-18T04:16:16.824Z,113.55
2023-04-18T04:17:16.810Z,112.01
2023-04-18T04:18:16.808Z,105.40
2023-04-18T04:19:16.859Z,102.34
2023-04-18T04:20:16.882Z,100.28
2023-04-18T04:21:18.013Z,96.77
2023-04-18T04:22:16.980Z,91.47
2023-04-18T04:23:17.010Z,86.34
2023-04-18T04:24:17.060Z,85.44
2023-04-18T04:25:17.068Z,82.75
2023-04-18T04:26:17.118Z,78.71
2023-04-18T04:27:17.195Z,77.26
2023-04-18T04:28:17.231Z,74.57
2023-04-18T04:29:17.253Z,69.54
2023-04-18T04:30:17.300Z,66.51
2023-04-18T04:31:17.405Z,65.13
2023-04-18T04:32:17.415Z,63.06
2023-04-18T04:33:17.448Z,59.14
2023-04-18T04:34:17.524Z,59.04
2023-04-18T04:35:17.547Z,59.56
2023-04-18T04:36:18.963Z,60.76
2023-04-18T04:37:17.624Z,60.80
2023-04-18T04:38:17.727Z,59.99
2023-04-18T04:39:17.759Z,59.59
2023-04-18T04:40:17.780Z,57.89
2023-04-18T04:41:17.830Z,59.62
2023-04-18T04:42:17.866Z,59.86
2023-04-18T04:43:17.871Z,60.72
2023-04-18T04:44:18.058Z,58.31
2023-04-18T04:45:17.981Z,60.02
2023-04-18T04:46:18.053Z,61.21
2023-04-18T04:47:18.080Z,61.87
2023-04-18T04:48:18.105Z,58.12
2023-04-18T04:49:18.141Z,62.60
2023-04-18T04:50:18.186Z,63.32
2023-04-18T04:51:18.241Z,62.91
2023-04-18T04:52:18.268Z,63.08
2023-04-18T04:53:18.312Z,62.83
2023-04-18T04:54:18.349Z,64.15
2023-04-18T04:55:18.386Z,64.00
2023-04-18T04:56:18.420Z,65.48
2023-04-18T04:57:18.476Z,65.04
2023-04-18T04:58:18.474Z,64.53
2023-04-18T04:59:18.526Z,66.80
2023-04-18T05:00:18.566Z,65.57
2023-04-18T05:01:18.648Z,67.14
2023-04-18T05:02:18.713Z,68.06
2023-04-18T05:03:18.856Z,64.69
2023-04-18T05:04:19.026Z,67.42
2023-04-18T05:05:18.761Z,67.94
2023-04-18T05:06:18.820Z,66.90
2023-04-18T05:07:18.808Z,68.57
2023-04-18T05:08:18.889Z,69.46
2023-04-18T05:09:18.958Z,69.60
2023-04-18T05:10:18.966Z,68.54
2023-04-18T05:11:19.030Z,70.80
2023-04-18T05:12:19.063Z,69.20
2023-04-18T05:13:19.092Z,70.14
2023-04-18T05:14:19.153Z,71.76
2023-04-18T05:15:19.201Z,71.38
2023-04-18T05:16:19.262Z,70.03
2023-04-18T05:17:19.256Z,72.70
2023-04-18T05:18:19.329Z,73.00
2023-04-18T05:19:19.346Z,71.30
2023-04-18T05:20:19.381Z,71.48
2023-04-18T05:21:19.459Z,72.45
2023-04-18T05:22:19.497Z,71.82
2023-04-18T05:23:19.535Z,71.54
2023-04-18T05:24:19.585Z,71.86
2023-04-18T05:25:19.615Z,72.36
2023-04-18T05:26:19.674Z,71.76
2023-04-18T05:27:19.694Z,71.26
2023-04-18T05:28:19.767Z,73.23
2023-04-18T05:29:19.813Z,71.97
2023-04-18T05:30:19.863Z,71.57
2023-04-18T05:31:19.987Z,70.34
2023-04-18T05:32:19.993Z,71.18
2023-04-18T05:33:19.991Z,69.49
2023-04-18T05:34:20.026Z,69.29
2023-04-18T05:35:20.075Z,70.22
2023-04-18T05:36:20.114Z,68.39
2023-04-18T05:37:20.145Z,69.39
2023-04-18T05:38:20.236Z,66.37
2023-04-18T05:39:20.244Z,69.92
2023-04-18T05:40:20.301Z,69.79
2023-04-18T05:41:20.308Z,69.31
2023-04-18T05:42:20.358Z,64.39
2023-04-18T05:43:20.415Z,65.75
2023-04-18T05:44:20.790Z,64.45
2023-04-18T05:45:20.471Z,61.44
2023-04-18T05:46:20.539Z,63.23
2023-04-18T05:47:20.593Z,63.73
2023-04-18T05:48:20.575Z,67.25
2023-04-18T05:49:20.602Z,69.77
2023-04-18T05:50:20.656Z,70.97
2023-04-18T05:51:21.133Z,71.09
2023-04-18T05:52:20.682Z,77.14
2023-04-18T05:53:20.709Z,73.77
2023-04-18T05:54:20.734Z,74.44
2023-04-18T05:55:20.758Z,83.35
2023-04-18T05:56:20.990Z,80.79
2023-04-18T05:57:21.175Z,82.75
2023-04-18T05:58:20.822Z,85.43
2023-04-18T05:59:21.143Z,85.78
2023-04-18T06:00:20.880Z,89.13
2023-04-18T06:01:21.155Z,87.47
2023-04-18T06:02:21.017Z,91.70
2023-04-18T06:03:21.032Z,96.23
2023-04-18T06:04:21.281Z,96.29
2023-04-18T06:05:21.045Z,97.59
2023-04-18T06:06:20.927Z,97.64
2023-04-18T06:07:20.944Z,96.77
2023-04-18T06:08:20.929Z,97.21
2023-04-18T06:09:20.965Z,100.15
2023-04-18T06:10:20.973Z,94.68
2023-04-18T06:11:21.000Z,97.15
2023-04-18T06:12:21.100Z,100.12
2023-04-18T06:13:21.069Z,102.43
2023-04-18T06:14:21.114Z,104.06
2023-04-18T06:15:21.155Z,105.76
2023-04-18T06:16:21.149Z,108.22
2023-04-18T06:17:21.193Z,107.43
2023-04-18T06:18:21.109Z,105.07
2023-04-18T06:19:21.147Z,103.67
2023-04-18T06:20:21.128Z,102.93
2023-04-18T06:21:21.120Z,105.26
2023-04-18T06:22:21.136Z,104.77
2023-04-18T06:23:21.106Z,104.29
2023-04-18T06:24:21.154Z,104.95
2023-04-18T06:25:21.141Z,101.56
2023-04-18T06:26:21.128Z,97.87
2023-04-18T06:27:31.085Z,98.93
2023-04-18T06:28:22.140Z,99.29
2023-04-18T06:29:21.123Z,99.67
2023-04-18T06:30:21.133Z,101.36
2023-04-18T06:31:21.184Z,101.11
2023-04-18T06:32:21.137Z,102.33
2023-04-18T06:33:21.158Z,108.35
2023-04-18T06:34:21.133Z,100.16
2023-04-18T06:35:21.157Z,82.71
2023-04-18T06:36:21.084Z,78.75
2023-04-18T06:37:21.086Z,66.92
2023-04-18T06:38:21.069Z,56.06
2023-04-18T06:39:21.112Z,49.06
2023-04-18T06:40:21.046Z,51.67
2023-04-18T06:41:21.070Z,51.96
2023-04-18T06:42:22.360Z,50.78
2023-04-18T06:43:21.027Z,49.10
2023-04-18T06:44:21.030Z,48.19
2023-04-18T06:45:21.041Z,44.74
2023-04-18T06:46:21.174Z,46.66
2023-04-18T06:47:21.111Z,44.19
2023-04-18T06:48:21.160Z,42.20
2023-04-18T06:49:25.193Z,45.42
2023-04-18T06:50:22.165Z,42.67
2023-04-18T06:51:21.140Z,42.66
2023-04-18T06:52:21.079Z,43.83
2023-04-18T06:53:21.097Z,46.02
2023-04-18T06:54:21.109Z,47.48
2023-04-18T06:55:21.108Z,48.82
2023-04-18T06:56:21.057Z,50.61
2023-04-18T06:57:21.082Z,52.26
2023-04-18T06:58:21.090Z,52.01
2023-04-18T06:59:21.076Z,55.43
2023-04-18T07:00:21.105Z,54.06
2023-04-18T07:01:21.135Z,58.91
2023-04-18T07:02:21.126Z,62.21
2023-04-18T07:03:21.093Z,62.53
2023-04-18T07:04:21.166Z,63.32
2023-04-18T07:05:21.075Z,64.17
2023-04-18T07:06:21.071Z,65.05
2023-04-18T07:07:21.145Z,61.47
2023-04-18T07:08:21.145Z,62.33
2023-04-18T07:09:21.149Z,62.92
2023-04-18T07:10:21.196Z,65.37
2023-04-18T07:11:21.216Z,67.41
2023-04-18T07:12:21.221Z,64.64
2023-04-18T07:13:21.219Z,71.42
2023-04-18T07:14:21.226Z,69.24
2023-04-18T07:15:21.217Z,69.13
2023-04-18T07:16:21.322Z,69.28
2023-04-18T07:17:21.752Z,71.31
2023-04-18T07:18:34.171Z,71.37
2023-04-18T07:19:22.298Z,71.67
2023-04-18T07:20:21.224Z,72.06
2023-04-18T07:21:21.227Z,72.75
2023-04-18T07:22:21.694Z,73.33
2023-04-18T07:23:21.204Z,73.70
2023-04-18T07:24:21.197Z,73.21
2023-04-18T07:25:21.200Z,73.01
2023-04-18T07:26:21.178Z,79.66
2023-04-18T07:27:21.165Z,81.00
2023-04-18T07:28:21.165Z,75.46
2023-04-18T07:29:21.173Z,80.99
2023-04-18T07:30:21.250Z,82.20
2023-04-18T07:31:21.332Z,84.85
2023-04-18T07:32:21.444Z,85.03
2023-04-18T07:33:21.417Z,83.59
2023-04-18T07:34:21.473Z,79.57
2023-04-18T07:35:21.680Z,82.76
2023-04-18T07:36:21.705Z,86.32
2023-04-18T07:37:21.668Z,86.25
2023-04-18T07:38:21.755Z,90.91
2023-04-18T07:39:21.782Z,92.82
2023-04-18T07:40:21.865Z,88.53
2023-04-18T07:41:21.900Z,94.13
2023-04-18T07:42:21.952Z,92.33
2023-04-18T07:43:23.683Z,91.22
2023-04-18T07:44:22.053Z,94.62
2023-04-18T07:45:22.105Z,94.31
2023-04-18T07:46:22.188Z,101.37
2023-04-18T07:47:22.568Z,103.84
2023-04-18T07:48:22.260Z,104.42
2023-04-18T07:49:22.700Z,108.06
2023-04-18T07:50:22.269Z,111.42
2023-04-18T07:51:22.311Z,116.02
2023-04-18T07:52:22.318Z,115.29
2023-04-18T07:53:22.375Z,116.43
2023-04-18T07:54:22.334Z,118.68
2023-04-18T07:55:25.242Z,113.89
2023-04-18T07:56:22.752Z,118.01
2023-04-18T07:57:22.402Z,121.59
2023-04-18T07:58:22.365Z,125.25
2023-04-18T07:59:22.324Z,123.96
2023-04-18T08:00:22.322Z,126.65
2023-04-18T08:01:22.321Z,113.22
2023-04-18T08:02:22.916Z,105.18
2023-04-18T08:03:22.572Z,103.97
2023-04-18T08:04:22.436Z,103.17
2023-04-18T08:05:22.373Z,110.81
2023-04-18T08:06:22.329Z,124.37
2023-04-18T08:07:22.310Z,124.85
2023-04-18T08:08:22.319Z,125.30
2023-04-18T08:09:22.753Z,120.14
2023-04-18T08:10:23.809Z,106.81
2023-04-18T08:11:22.295Z,106.06
2023-04-18T08:12:22.284Z,104.20
2023-04-18T08:13:22.250Z,108.32
2023-04-18T08:14:22.223Z,99.66
2023-04-18T08:15:22.286Z,88.99
2023-04-18T08:16:22.227Z,89.77
2023-04-18T08:17:22.223Z,83.21
2023-04-18T08:18:22.226Z,76.01
2023-04-18T08:19:22.693Z,65.12
2023-04-18T08:20:22.549Z,55.24
2023-04-18T08:21:22.213Z,56.25
2023-04-18T08:22:22.218Z,47.79
2023-04-18T08:23:22.217Z,51.88
2023-04-18T08:24:22.175Z,53.50
2023-04-18T08:25:22.176Z,38.67
2023-04-18T08:26:22.180Z,41.74
2023-04-18T08:27:22.196Z,40.40
2023-04-18T08:28:22.148Z,53.96
2023-04-18T08:29:22.155Z,65.94
2023-04-18T08:30:22.179Z,69.81
2023-04-18T08:31:22.207Z,77.52
2023-04-18T08:32:22.139Z,68.24
2023-04-18T08:33:22.114Z,46.74
2023-04-18T08:34:22.111Z,35.91
2023-04-18T08:35:22.092Z,31.21
2023-04-18T08:36:22.113Z,25.00
2023-04-18T08:37:22.115Z,26.68
2023-04-18T08:38:22.055Z,25.14
2023-04-18T08:39:23.160Z,28.23
2023-04-18T08:40:22.065Z,25.00
2023-04-18T08:41:22.084Z,25.00
2023-04-18T08:42:22.042Z,26.53
2023-04-18T08:43:22.059Z,34.25
2023-04-18T08:44:22.052Z,35.60
2023-04-18T08:45:22.056Z,34.11
2023-04-18T08:46:22.128Z,35.08
2023-04-18T08:47:22.158Z,40.61
2023-04-18T08:48:22.024Z,53.35
2023-04-18T08:49:22.037Z,64.40
2023-04-18T08:50:21.994Z,63.15
2023-04-18T08:51:21.982Z,56.59
2023-04-18T08:52:22.004Z,71.37
2023-04-18T08:53:21.985Z,66.57
2023-04-18T08:54:22.015Z,60.72
2023-04-18T08:55:21.964Z,79.41
2023-04-18T08:56:21.974Z,84.73
2023-04-18T08:57:21.994Z,87.20
2023-04-18T08:58:21.928Z,94.72
2023-04-18T08:59:21.940Z,90.13
2023-04-18T09:00:21.946Z,67.89
2023-04-18T09:01:24.768Z,59.85
2023-04-18T09:02:22.120Z,72.17
2023-04-18T09:03:21.979Z,90.34
2023-04-18T09:04:21.938Z,100.15
2023-04-18T09:05:21.897Z,114.65
2023-04-18T09:06:21.908Z,116.68
2023-04-18T09:07:21.932Z,89.82
2023-04-18T09:08:22.073Z,77.95
2023-04-18T09:09:22.227Z,79.31
2023-04-18T09:10:21.875Z,85.94
2023-04-18T09:11:21.875Z,112.52
2023-04-18T09:12:21.847Z,117.38
2023-04-18T09:13:23.546Z,99.94
2023-04-18T09:14:22.266Z,100.26
2023-04-18T09:15:22.102Z,102.05
2023-04-18T09:16:22.170Z,106.00
2023-04-18T09:17:22.224Z,108.15
2023-04-18T09:18:22.237Z,110.22
2023-04-18T09:19:22.292Z,122.28
2023-04-18T09:20:22.346Z,133.79
2023-04-18T09:21:22.393Z,120.72
2023-04-18T09:22:22.455Z,115.40
2023-04-18T09:23:22.504Z,106.54
2023-04-18T09:24:22.633Z,110.33
2023-04-18T09:25:22.632Z,86.05
2023-04-18T09:26:22.729Z,92.19
2023-04-18T09:27:22.751Z,80.25
2023-04-18T09:28:22.823Z,79.56
2023-04-18T09:29:22.862Z,88.97
2023-04-18T09:30:22.972Z,96.44
2023-04-18T09:31:23.351Z,84.00
2023-04-18T09:32:23.037Z,71.87
2023-04-18T09:33:23.021Z,0.00
2023-04-18T09:34:23.061Z,0.00
2023-04-18T09:35:23.034Z,0.00
2023-04-18T09:36:23.304Z,0.00
2023-04-18T09:37:23.124Z,0.00
2023-04-18T09:38:23.179Z,0.00
2023-04-18T09:39:23.267Z,25.00
2023-04-18T09:40:23.360Z,42.20
2023-04-18T09:41:23.773Z,53.43
2023-04-18T09:42:23.392Z,66.94
2023-04-18T09:43:23.390Z,55.04
2023-04-18T09:44:23.380Z,63.81
2023-04-18T09:45:23.473Z,63.88
2023-04-18T09:46:23.582Z,75.13
2023-04-18T09:47:23.563Z,73.94
2023-04-18T09:48:23.536Z,72.19
2023-04-18T09:49:23.892Z,92.03
2023-04-18T09:50:23.665Z,124.11
2023-04-18T09:51:23.689Z,135.49
2023-04-18T09:52:23.608Z,156.67
2023-04-18T09:53:23.814Z,156.55
2023-04-18T09:54:23.738Z,176.06
2023-04-18T09:55:23.623Z,192.02
2023-04-18T09:56:23.670Z,203.84
2023-04-18T09:57:23.614Z,217.39
2023-04-18T09:58:23.631Z,228.01
2023-04-18T09:59:23.676Z,229.11
2023-04-18T10:00:23.762Z,232.64
2023-04-18T10:01:23.846Z,243.30
2023-04-18T10:02:23.937Z,245.21
2023-04-18T10:03:24.043Z,247.62
2023-04-18T10:04:24.013Z,249.45
2023-04-18T10:05:24.065Z,249.39
2023-04-18T10:06:24.037Z,244.92
2023-04-18T10:07:24.095Z,249.65
2023-04-18T10:08:24.104Z,247.13
2023-04-18T10:09:24.155Z,247.02
2023-04-18T10:10:24.192Z,245.84
2023-04-18T10:11:24.374Z,235.09
2023-04-18T10:12:24.318Z,241.82
2023-04-18T10:13:24.318Z,234.34
2023-04-18T10:14:24.326Z,242.25
2023-04-18T10:15:24.433Z,232.18
2023-04-18T10:16:24.778Z,240.39
2023-04-18T10:17:24.433Z,229.64
2023-04-18T10:18:24.509Z,226.83
2023-04-18T10:19:24.453Z,229.18
2023-04-18T10:20:24.433Z,235.45
2023-04-18T10:21:24.470Z,237.66
2023-04-18T10:22:24.834Z,232.61
2023-04-18T10:23:25.517Z,234.74
2023-04-18T10:24:24.420Z,235.62
2023-04-18T10:25:24.432Z,233.25
2023-04-18T10:26:24.480Z,220.27
2023-04-18T10:27:24.505Z,214.36
2023-04-18T10:28:24.472Z,178.83
2023-04-18T10:29:24.446Z,126.01
2023-04-18T10:30:24.463Z,121.50
2023-04-18T10:31:24.478Z,137.18
2023-04-18T10:32:24.848Z,153.63
2023-04-18T10:33:30.397Z,160.76
2023-04-18T10:34:25.473Z,151.91
2023-04-18T10:35:24.444Z,133.98
2023-04-18T10:36:24.386Z,119.33
2023-04-18T10:37:24.444Z,121.99
2023-04-18T10:38:24.426Z,97.43
2023-04-18T10:39:24.385Z,102.63
2023-04-18T10:40:24.434Z,93.06
2023-04-18T10:41:24.404Z,75.45
2023-04-18T10:42:24.378Z,70.53
2023-04-18T10:43:24.381Z,29.39
2023-04-18T10:44:24.361Z,30.88
2023-04-18T10:45:24.488Z,19.86
2023-04-18T10:46:31.680Z,29.33
2023-04-18T10:47:25.405Z,29.59
2023-04-18T10:48:24.838Z,6.54
2023-04-18T10:49:26.204Z,22.37
2023-04-18T10:50:24.548Z,6.97
2023-04-18T10:51:24.503Z,23.95
2023-04-18T10:52:24.531Z,20.59
2023-04-18T10:53:24.823Z,18.40
2023-04-18T10:54:24.521Z,31.23
2023-04-18T10:55:24.547Z,23.02
2023-04-18T10:56:24.553Z,25.00
2023-04-18T10:57:24.535Z,41.67
2023-04-18T10:58:24.513Z,59.12
2023-04-18T10:59:24.553Z,49.54
2023-04-18T11:00:24.611Z,54.95
2023-04-18T11:01:24.672Z,65.15
2023-04-18T11:02:24.720Z,64.95
2023-04-18T11:03:24.796Z,66.92
2023-04-18T11:04:24.734Z,50.65
2023-04-18T11:05:24.708Z,53.00
2023-04-18T11:06:24.721Z,55.70
2023-04-18T11:07:24.762Z,42.69
2023-04-18T11:08:24.753Z,29.71
2023-04-18T11:09:24.844Z,31.58
2023-04-18T11:10:24.870Z,60.20
2023-04-18T11:11:24.916Z,65.20
2023-04-18T11:12:24.961Z,45.43
2023-04-18T11:13:24.952Z,45.47
2023-04-18T11:14:25.009Z,70.63
2023-04-18T11:15:25.151Z,97.98
2023-04-18T11:16:25.153Z,111.74
2023-04-18T11:17:25.169Z,114.70
2023-04-18T11:18:25.205Z,119.81
2023-04-18T11:19:25.381Z,136.28
2023-04-18T11:20:25.313Z,150.81
2023-04-18T11:21:25.420Z,153.07
2023-04-18T11:22:25.427Z,168.06
2023-04-18T11:23:25.500Z,172.05
2023-04-18T11:24:25.562Z,191.00
2023-04-18T11:25:25.618Z,187.69
2023-04-18T11:26:25.729Z,191.07
2023-04-18T11:27:25.799Z,197.23
2023-04-18T11:28:25.794Z,199.99
2023-04-18T11:29:25.840Z,196.86
2023-04-18T11:30:25.880Z,190.75
2023-04-18T11:31:26.012Z,202.63
2023-04-18T11:32:26.072Z,180.38
2023-04-18T11:33:26.060Z,171.58
2023-04-18T11:34:26.065Z,155.05
2023-04-18T11:35:26.066Z,162.19
2023-04-18T11:36:26.115Z,170.85
2023-04-18T11:37:26.103Z,182.40
2023-04-18T11:38:26.149Z,190.29
2023-04-18T11:39:26.124Z,194.14
2023-04-18T11:40:26.137Z,178.81
2023-04-18T11:41:26.143Z,177.94
2023-04-18T11:42:26.182Z,177.29
2023-04-18T11:43:26.129Z,182.40
2023-04-18T11:44:26.119Z,184.63
2023-04-18T11:45:26.136Z,184.25
2023-04-18T11:46:26.186Z,190.89
2023-04-18T11:47:26.168Z,187.25
2023-04-18T11:48:26.198Z,177.34
2023-04-18T11:49:26.136Z,161.01
2023-04-18T11:50:26.125Z,150.13
2023-04-18T11:51:26.150Z,153.45
2023-04-18T11:52:26.145Z,157.60
2023-04-18T11:53:26.186Z,158.86
2023-04-18T11:54:26.144Z,153.15
2023-04-18T11:55:26.211Z,147.67
2023-04-18T11:56:26.142Z,140.72
2023-04-18T11:57:26.177Z,128.35
2023-04-18T11:58:26.176Z,123.22
2023-04-18T11:59:26.148Z,113.90
2023-04-18T12:00:26.174Z,110.58
2023-04-18T12:01:26.177Z,103.17
2023-04-18T12:02:26.302Z,104.85
2023-04-18T12:03:26.372Z,83.10
2023-04-18T12:04:26.389Z,88.97
2023-04-18T12:05:26.530Z,93.72
2023-04-18T12:06:26.351Z,82.74
2023-04-18T12:07:26.250Z,80.01
2023-04-18T12:08:26.244Z,68.34
2023-04-18T12:09:26.258Z,61.38
2023-04-18T12:10:26.259Z,65.48
2023-04-18T12:11:26.277Z,83.01
2023-04-18T12:12:26.264Z,92.00
2023-04-18T12:13:26.300Z,92.37
2023-04-18T12:14:26.295Z,97.03
2023-04-18T12:15:26.307Z,99.81
2023-04-18T12:16:26.376Z,111.57
2023-04-18T12:17:26.314Z,105.59
2023-04-18T12:18:26.307Z,118.32
2023-04-18T12:19:26.331Z,123.52
2023-04-18T12:20:26.334Z,124.38
2023-04-18T12:21:26.334Z,148.47
2023-04-18T12:22:26.348Z,145.30
2023-04-18T12:23:26.322Z,148.25
2023-04-18T12:24:26.340Z,155.87
2023-04-18T12:25:27.785Z,156.63
2023-04-18T12:26:26.312Z,158.38
2023-04-18T12:27:26.318Z,160.99
2023-04-18T12:28:26.328Z,164.84
2023-04-18T12:29:26.337Z,163.11
2023-04-18T12:30:26.338Z,172.85
2023-04-18T12:31:26.404Z,173.62
2023-04-18T12:32:26.318Z,174.61
2023-04-18T12:33:26.366Z,184.86
2023-04-18T12:34:26.334Z,186.21
2023-04-18T12:35:26.343Z,187.06
2023-04-18T12:36:26.347Z,189.92
2023-04-18T12:37:26.404Z,196.56
2023-04-18T12:38:26.345Z,195.94